createdAt,value
2022-08-18T00:01:16.466Z,7.55
2022-08-18T00:03:56.642Z,6.57
2022-08-18T00:06:29.373Z,8.98
2022-08-18T00:08:59.264Z,6.30
2022-08-18T00:11:27.757Z,8.38
2022-08-18T00:13:54.904Z,6.68
2022-08-18T00:16:22.115Z,7.20
2022-08-18T00:18:49.067Z,5.80
2022-08-18T00:21:16.555Z,5.25
2022-08-18T00:23:43.522Z,6.00
2022-08-18T00:26:10.874Z,5.63
2022-08-18T00:28:37.895Z,6.38
2022-08-18T00:31:05.972Z,7.80
2022-08-18T00:33:33.319Z,6.80
2022-08-18T00:36:00.304Z,8.23
2022-08-18T00:38:27.254Z,9.80
2022-08-18T00:40:56.300Z,9.25
2022-08-18T00:43:53.292Z,6.15
2022-08-18T00:46:29.745Z,5.50
2022-08-18T00:48:57.711Z,5.90
2022-08-18T00:51:49.440Z,8.75
2022-08-18T00:54:21.019Z,9.25
2022-08-18T00:56:51.569Z,6.93
2022-08-18T00:59:47.156Z,5.97
2022-08-18T01:02:33.008Z,10.23
2022-08-18T01:05:15.204Z,11.35
2022-08-18T01:07:47.577Z,10.38
2022-08-18T01:10:21.167Z,6.82
2022-08-18T01:12:52.476Z,8.40
2022-08-18T01:15:28.082Z,8.63
2022-08-18T01:18:17.727Z,7.03
2022-08-18T01:21:38.634Z,7.07
2022-08-18T01:24:08.871Z,6.25
2022-08-18T01:26:44.352Z,7.28
2022-08-18T01:29:19.203Z,7.03
2022-08-18T01:31:55.424Z,6.68
2022-08-18T01:34:26.605Z,5.65
2022-08-18T01:36:55.088Z,9.85
2022-08-18T01:40:59.935Z,8.15
2022-08-18T01:42:10.436Z,7.55
2022-08-18T01:44:40.598Z,6.93
2022-08-18T01:47:10.892Z,9.65
2022-08-18T01:49:39.884Z,10.93
2022-08-18T01:52:07.558Z,8.60
2022-08-18T01:54:34.530Z,6.90
2022-08-18T01:57:02.618Z,9.18
2022-08-18T01:59:29.869Z,7.45
2022-08-18T02:02:00.213Z,9.20
2022-08-18T02:04:36.096Z,6.90
2022-08-18T02:07:07.878Z,5.68
2022-08-18T02:09:37.785Z,7.07
2022-08-18T02:12:07.287Z,7.82
2022-08-18T02:14:37.714Z,6.72
2022-08-18T02:17:08.038Z,8.20
2022-08-18T02:19:42.371Z,8.60
2022-08-18T02:22:11.429Z,8.43
2022-08-18T02:24:38.857Z,7.05
2022-08-18T02:27:07.427Z,7.15
2022-08-18T02:29:35.561Z,7.68
2022-08-18T02:32:02.799Z,10.48
2022-08-18T02:34:29.798Z,8.27
2022-08-18T02:36:56.812Z,9.57
2022-08-18T02:39:23.737Z,8.52
2022-08-18T02:41:51.725Z,9.68
2022-08-18T02:44:18.706Z,9.20
2022-08-18T02:46:45.687Z,7.82
2022-08-18T02:49:12.964Z,9.90
2022-08-18T02:51:40.055Z,11.40
2022-08-18T02:54:09.556Z,7.55
2022-08-18T02:56:41.808Z,7.80
2022-08-18T02:59:23.243Z,7.88
2022-08-18T03:01:53.421Z,7.22
2022-08-18T03:04:29.674Z,7.93
2022-08-18T03:07:01.186Z,7.18
2022-08-18T03:09:29.655Z,9.40
2022-08-18T03:11:57.356Z,7.85
2022-08-18T03:14:25.595Z,13.15
2022-08-18T03:16:54.424Z,11.10
2022-08-18T03:19:32.162Z,14.40
2022-08-18T03:22:03.348Z,12.18
2022-08-18T03:24:32.224Z,13.23
2022-08-18T03:27:00.400Z,15.10
2022-08-18T03:29:32.089Z,9.50
2022-08-18T03:32:01.314Z,12.27
2022-08-18T03:34:28.541Z,11.02
2022-08-18T03:36:55.474Z,13.93
2022-08-18T03:39:25.302Z,9.60
2022-08-18T03:41:59.646Z,8.13
2022-08-18T03:44:33.473Z,10.82
2022-08-18T03:49:31.446Z,13.55
2022-08-18T03:52:01.162Z,13.95
2022-08-18T03:54:29.606Z,11.25
2022-08-18T03:56:56.703Z,9.02
2022-08-18T03:59:25.765Z,7.50
2022-08-18T04:01:55.082Z,12.65
2022-08-18T04:04:27.070Z,11.45
2022-08-18T04:07:00.122Z,10.68
2022-08-18T04:09:29.651Z,8.68
2022-08-18T04:11:57.725Z,8.57
2022-08-18T04:14:33.020Z,8.00
2022-08-18T04:17:00.216Z,9.40
2022-08-18T04:19:28.164Z,10.38
2022-08-18T04:21:57.512Z,9.25
2022-08-18T04:24:31.035Z,10.20
2022-08-18T04:27:01.374Z,9.90
2022-08-18T04:29:29.676Z,11.70
2022-08-18T04:31:56.973Z,7.40
2022-08-18T04:34:24.024Z,7.55
2022-08-18T04:36:54.165Z,8.90
2022-08-18T04:39:22.845Z,7.35
2022-08-18T04:41:50.985Z,9.30
2022-08-18T04:44:19.151Z,12.38
2022-08-18T04:46:54.078Z,7.18
2022-08-18T04:49:25.697Z,11.30
2022-08-18T04:52:34.481Z,6.63
2022-08-18T04:55:01.671Z,8.05
2022-08-18T04:57:29.316Z,7.72
2022-08-18T05:00:00.677Z,11.60
2022-08-18T05:02:28.102Z,8.00
2022-08-18T05:04:55.188Z,10.88
2022-08-18T05:07:25.685Z,10.52
2022-08-18T05:09:55.221Z,9.30
2022-08-18T05:12:25.770Z,9.63
2022-08-18T05:14:54.297Z,10.10
2022-08-18T05:17:21.228Z,18.42
2022-08-18T05:19:48.543Z,13.05
2022-08-18T05:22:26.467Z,9.75
2022-08-18T05:24:55.862Z,7.80
2022-08-18T05:27:22.894Z,7.30
2022-08-18T05:29:51.639Z,7.53
2022-08-18T05:32:42.521Z,7.75
2022-08-18T05:35:15.404Z,7.22
2022-08-18T05:38:12.182Z,13.70
2022-08-18T05:40:39.351Z,10.57
2022-08-18T05:43:08.291Z,9.82
2022-08-18T05:45:35.937Z,9.90
2022-08-18T05:48:03.122Z,9.65
2022-08-18T05:50:35.095Z,10.05
2022-08-18T05:53:13.331Z,10.73
2022-08-18T05:56:05.416Z,8.95
2022-08-18T05:58:46.952Z,8.07
2022-08-18T06:01:26.286Z,7.50
2022-08-18T06:04:02.792Z,15.10
2022-08-18T06:06:31.751Z,12.85
2022-08-18T06:09:13.448Z,15.45
2022-08-18T06:11:40.538Z,5.72
2022-08-18T06:14:07.672Z,8.70
2022-08-18T06:16:53.578Z,9.63
2022-08-18T06:19:49.547Z,9.10
2022-08-18T06:22:31.564Z,10.00
2022-08-18T06:25:13.579Z,11.05
2022-08-18T06:28:07.661Z,7.03
2022-08-18T06:30:40.071Z,9.27
2022-08-18T06:33:29.822Z,8.57
2022-08-18T06:36:03.908Z,9.55
2022-08-18T06:38:41.029Z,9.00
2022-08-18T06:41:42.735Z,9.23
2022-08-18T06:44:23.217Z,8.57
2022-08-18T06:46:56.409Z,6.32
2022-08-18T06:49:36.371Z,9.57
2022-08-18T06:52:23.505Z,8.27
2022-08-18T06:54:52.079Z,45.42
2022-08-18T06:57:52.849Z,37.90
2022-08-18T07:00:19.964Z,74.40
2022-08-18T07:02:58.834Z,73.25
2022-08-18T07:05:28.972Z,59.05
2022-08-18T07:08:14.681Z,29.50
2022-08-18T07:10:50.784Z,29.60
2022-08-18T07:13:30.137Z,25.00
2022-08-18T07:16:47.115Z,15.15
2022-08-18T07:19:20.419Z,8.40
2022-08-18T07:22:04.085Z,14.38
2022-08-18T07:24:44.420Z,16.30
2022-08-18T07:27:17.733Z,13.23
2022-08-18T07:30:07.001Z,10.85
2022-08-18T07:32:44.847Z,9.50
2022-08-18T07:35:17.648Z,13.15
2022-08-18T07:37:55.252Z,8.02
2022-08-18T07:40:51.706Z,6.53
2022-08-18T07:43:32.105Z,8.13
2022-08-18T07:46:12.497Z,8.57
2022-08-18T07:48:40.666Z,8.52
2022-08-18T07:51:38.516Z,8.68
2022-08-18T07:54:47.882Z,10.20
2022-08-18T07:57:20.626Z,11.07
2022-08-18T08:00:18.836Z,9.63
2022-08-18T08:03:12.350Z,8.32
2022-08-18T08:05:54.579Z,7.05
2022-08-18T08:08:46.185Z,6.72
2022-08-18T08:11:19.152Z,10.85
2022-08-18T08:14:07.454Z,6.70
2022-08-18T08:16:50.383Z,6.35
2022-08-18T08:19:59.642Z,4.07
2022-08-18T08:23:15.204Z,7.47
2022-08-18T08:26:06.851Z,10.60
2022-08-18T08:28:56.888Z,8.85
2022-08-18T08:31:36.827Z,5.85
2022-08-18T08:34:27.778Z,7.30
2022-08-18T08:37:02.695Z,6.93
2022-08-18T08:40:08.581Z,5.72
2022-08-18T08:43:23.911Z,8.95
2022-08-18T08:46:20.226Z,6.03
2022-08-18T08:48:55.955Z,8.00
2022-08-18T08:51:31.983Z,5.93
2022-08-18T08:54:24.826Z,8.93
2022-08-18T08:59:22.786Z,5.57
2022-08-18T09:02:37.957Z,7.82
2022-08-18T09:05:11.915Z,7.65
2022-08-18T09:08:05.813Z,7.95
2022-08-18T09:11:07.199Z,6.07
2022-08-18T09:13:49.333Z,10.82
2022-08-18T09:16:39.538Z,7.85
2022-08-18T09:19:32.456Z,14.52
2022-08-18T09:22:10.580Z,10.75
2022-08-18T09:24:47.132Z,10.77
2022-08-18T09:27:53.810Z,14.50
2022-08-18T09:30:47.480Z,11.32
2022-08-18T09:33:46.643Z,12.18
2022-08-18T09:36:31.619Z,9.57
2022-08-18T09:39:36.541Z,8.07
2022-08-18T09:42:12.632Z,7.50
2022-08-18T09:44:49.281Z,12.07
2022-08-18T09:47:23.723Z,8.90
2022-08-18T09:53:38.016Z,8.75
2022-08-18T09:56:06.902Z,5.68
2022-08-18T09:58:55.939Z,7.70
2022-08-18T10:01:38.275Z,9.90
2022-08-18T10:04:15.702Z,9.00
2022-08-18T10:06:51.704Z,7.85
2022-08-18T10:09:44.144Z,7.28
2022-08-18T10:12:33.784Z,6.70
2022-08-18T10:15:07.037Z,4.13
2022-08-18T10:17:45.633Z,5.90
2022-08-18T10:20:42.636Z,5.90
2022-08-18T10:23:10.345Z,7.18
2022-08-18T10:25:47.333Z,8.82
2022-08-18T10:29:00.203Z,7.32
2022-08-18T10:31:28.881Z,6.28
2022-08-18T10:34:16.903Z,5.88
2022-08-18T10:37:01.855Z,10.25
2022-08-18T10:39:39.660Z,6.57
2022-08-18T10:42:19.962Z,12.07
2022-08-18T10:44:50.314Z,7.00
2022-08-18T10:50:22.995Z,6.15
2022-08-18T10:53:38.855Z,6.47
2022-08-18T10:56:34.110Z,8.18
2022-08-18T10:59:54.492Z,6.78
2022-08-18T11:02:27.685Z,8.75
2022-08-18T11:04:58.696Z,13.18
2022-08-18T11:07:34.382Z,10.65
2022-08-18T11:10:32.202Z,13.00
2022-08-18T11:13:22.745Z,12.63
2022-08-18T11:16:21.050Z,8.50
2022-08-18T11:19:04.087Z,6.43
2022-08-18T11:21:51.434Z,7.55
2022-08-18T11:24:26.739Z,9.32
2022-08-18T11:26:59.725Z,7.28
2022-08-18T11:29:35.510Z,6.95
2022-08-18T11:32:04.425Z,14.15
2022-08-18T11:34:41.313Z,8.57
2022-08-18T11:37:51.251Z,8.95
2022-08-18T11:43:42.272Z,13.35
2022-08-18T11:46:31.151Z,11.32
2022-08-18T11:49:01.381Z,9.25
2022-08-18T11:51:32.819Z,8.68
2022-08-18T11:54:23.249Z,6.93
2022-08-18T11:56:51.614Z,9.13
2022-08-18T11:59:52.210Z,7.63
2022-08-18T12:02:21.521Z,6.37
2022-08-18T12:04:56.788Z,4.43
2022-08-18T12:07:35.635Z,7.97
2022-08-18T12:10:28.505Z,9.13
2022-08-18T12:15:47.694Z,9.50
2022-08-18T12:18:19.056Z,9.68
2022-08-18T12:20:55.115Z,9.45
2022-08-18T12:23:22.213Z,11.57
2022-08-18T12:25:51.858Z,11.57
2022-08-18T12:28:22.670Z,11.80
2022-08-18T12:30:56.569Z,6.60
2022-08-18T12:33:25.547Z,5.22
2022-08-18T12:36:04.173Z,14.35
2022-08-18T12:38:32.995Z,10.65
2022-08-18T12:41:05.463Z,10.20
2022-08-18T12:43:34.080Z,7.53
2022-08-18T12:46:02.522Z,7.25
2022-08-18T12:48:31.823Z,10.43
2022-08-18T12:51:00.729Z,6.20
2022-08-18T12:56:30.332Z,8.93
2022-08-18T12:59:00.304Z,6.43
2022-08-18T13:01:32.674Z,9.43
2022-08-18T13:06:59.920Z,7.75
2022-08-18T13:09:42.660Z,8.98
2022-08-18T13:12:18.539Z,5.95
2022-08-18T13:14:47.546Z,8.40
2022-08-18T13:17:32.690Z,7.22
2022-08-18T13:20:13.345Z,5.28
2022-08-18T13:22:41.078Z,9.10
2022-08-18T13:25:11.174Z,9.10
2022-08-18T13:27:39.349Z,10.68
2022-08-18T13:30:30.554Z,6.95
2022-08-18T13:33:05.828Z,10.18
2022-08-18T13:35:52.071Z,8.00
2022-08-18T13:38:27.134Z,10.48
2022-08-18T13:40:59.179Z,5.15
2022-08-18T13:43:38.939Z,4.00
2022-08-18T13:46:07.140Z,4.63
2022-08-18T13:48:37.894Z,4.55
2022-08-18T13:51:08.207Z,7.57
2022-08-18T13:53:50.401Z,6.10
2022-08-18T13:56:19.823Z,6.90
2022-08-18T13:58:53.637Z,7.85
2022-08-18T14:01:44.746Z,10.05
2022-08-18T14:04:12.517Z,8.63
2022-08-18T14:06:46.792Z,6.93
2022-08-18T14:09:19.358Z,7.20
2022-08-18T14:11:51.222Z,10.27
2022-08-18T14:14:18.561Z,6.95
2022-08-18T14:16:45.593Z,5.57
2022-08-18T14:19:31.615Z,8.40
2022-08-18T14:22:17.833Z,7.03
2022-08-18T14:25:04.223Z,8.73
2022-08-18T14:27:37.818Z,7.60
2022-08-18T14:30:09.369Z,8.15
2022-08-18T14:32:51.314Z,6.80
2022-08-18T14:36:04.698Z,9.25
2022-08-18T14:38:09.952Z,6.65
2022-08-18T14:40:41.856Z,12.93
2022-08-18T14:43:11.641Z,9.95
2022-08-18T14:45:48.919Z,7.82
2022-08-18T14:48:18.698Z,6.15
2022-08-18T14:50:49.380Z,6.95
2022-08-18T14:55:52.407Z,6.47
2022-08-18T14:58:20.840Z,5.95
2022-08-18T15:00:53.368Z,4.47
2022-08-18T15:03:28.372Z,6.45
2022-08-18T15:06:00.607Z,5.38
2022-08-18T15:08:28.351Z,8.77
2022-08-18T15:10:56.324Z,9.25
2022-08-18T15:13:26.452Z,11.68
2022-08-18T15:16:02.179Z,11.30
2022-08-18T15:18:29.663Z,7.53
2022-08-18T15:21:19.448Z,8.35
2022-08-18T15:24:20.498Z,8.48
2022-08-18T15:26:51.863Z,7.70
2022-08-18T15:29:28.073Z,9.35
2022-08-18T15:32:05.841Z,12.93
2022-08-18T15:34:46.782Z,5.43
2022-08-18T15:37:19.836Z,8.63
2022-08-18T15:39:51.996Z,7.18
2022-08-18T15:42:23.711Z,6.07
2022-08-18T15:44:52.769Z,6.65
2022-08-18T15:47:21.260Z,10.88
2022-08-18T15:49:48.591Z,10.27
2022-08-18T15:52:17.407Z,7.90
2022-08-18T15:54:50.420Z,11.52
2022-08-18T15:57:34.247Z,5.88
2022-08-18T16:00:06.288Z,10.30
2022-08-18T16:02:33.814Z,10.45
2022-08-18T16:05:12.208Z,12.98
2022-08-18T16:07:45.097Z,10.90
2022-08-18T16:10:14.145Z,6.72
2022-08-18T16:12:45.963Z,8.05
2022-08-18T16:15:19.201Z,15.57
2022-08-18T16:17:48.549Z,9.65
2022-08-18T16:20:15.911Z,9.13
2022-08-18T16:22:43.515Z,7.50
2022-08-18T16:25:11.104Z,10.27
2022-08-18T16:27:42.990Z,6.18
2022-08-18T16:30:12.947Z,6.07
2022-08-18T16:32:40.319Z,9.30
2022-08-18T16:35:07.655Z,7.10
2022-08-18T16:37:35.139Z,7.28
2022-08-18T16:40:02.177Z,7.03
2022-08-18T16:42:33.179Z,8.82
2022-08-18T16:45:01.533Z,16.38
2022-08-18T16:47:28.703Z,9.27
2022-08-18T16:49:58.433Z,12.93
2022-08-18T16:52:27.260Z,18.35
2022-08-18T16:54:57.839Z,13.85
2022-08-18T16:57:55.101Z,10.98
2022-08-18T17:00:43.167Z,8.30
2022-08-18T17:03:28.970Z,13.02
2022-08-18T17:06:03.359Z,10.73
2022-08-18T17:08:34.267Z,10.15
2022-08-18T17:11:03.477Z,10.40
2022-08-18T17:13:30.526Z,10.57
2022-08-18T17:15:57.584Z,9.98
2022-08-18T17:18:24.856Z,12.10
2022-08-18T17:20:52.456Z,10.27
2022-08-18T17:23:22.709Z,7.18
2022-08-18T17:25:50.895Z,8.65
2022-08-18T17:28:23.865Z,13.45
2022-08-18T17:30:53.360Z,5.97
2022-08-18T17:33:26.388Z,8.57
2022-08-18T17:35:54.274Z,7.25
2022-08-18T17:38:43.903Z,8.88
2022-08-18T17:41:12.584Z,10.13
2022-08-18T17:46:18.665Z,9.25
2022-08-18T17:48:53.764Z,7.82
2022-08-18T17:51:35.303Z,14.77
2022-08-18T17:54:23.733Z,11.60
2022-08-18T17:56:57.787Z,15.52
2022-08-18T17:59:45.934Z,12.63
2022-08-18T18:02:30.336Z,14.65
2022-08-18T18:05:04.387Z,10.60
2022-08-18T18:07:43.823Z,12.63
2022-08-18T18:10:12.752Z,10.77
2022-08-18T18:12:40.372Z,18.25
2022-08-18T18:15:11.930Z,12.40
2022-08-18T18:17:42.370Z,12.13
2022-08-18T18:20:30.196Z,9.90
2022-08-18T18:23:19.486Z,10.15
2022-08-18T18:25:47.095Z,7.82
2022-08-18T18:28:35.252Z,11.45
2022-08-18T18:31:25.614Z,11.07
2022-08-18T18:34:03.332Z,11.38
2022-08-18T18:36:37.042Z,9.80
2022-08-18T18:39:23.005Z,11.55
2022-08-18T18:42:18.218Z,8.57
2022-08-18T18:44:59.227Z,8.52
2022-08-18T18:48:01.771Z,12.43
2022-08-18T18:53:44.595Z,13.00
2022-08-18T18:56:25.754Z,13.52
2022-08-18T18:59:25.242Z,7.90
2022-08-18T19:02:33.841Z,11.32
2022-08-18T19:05:21.543Z,10.93
2022-08-18T19:08:13.355Z,10.68
2022-08-18T19:11:10.999Z,12.65
2022-08-18T19:13:43.492Z,11.25
2022-08-18T19:16:36.201Z,12.07
2022-08-18T19:19:37.738Z,14.07
2022-08-18T19:22:10.519Z,11.80
2022-08-18T19:24:54.475Z,11.25
2022-08-18T19:27:34.188Z,11.70
2022-08-18T19:30:08.217Z,10.40
2022-08-18T19:32:43.989Z,14.02
2022-08-18T19:35:35.395Z,12.27
2022-08-18T19:38:18.822Z,11.45
2022-08-18T19:40:51.278Z,14.73
2022-08-18T19:43:55.954Z,9.65
2022-08-18T19:46:40.412Z,9.23
2022-08-18T19:49:36.872Z,13.73
2022-08-18T19:52:45.668Z,11.05
2022-08-18T19:55:51.499Z,13.05
2022-08-18T19:58:36.536Z,12.75
2022-08-18T20:01:41.831Z,12.77
2022-08-18T20:04:25.806Z,11.85
2022-08-18T20:07:26.350Z,12.77
2022-08-18T20:10:16.433Z,10.10
2022-08-18T20:13:05.687Z,10.70
2022-08-18T20:15:33.249Z,11.32
2022-08-18T20:18:21.690Z,11.35
2022-08-18T20:21:22.663Z,13.82
2022-08-18T20:24:06.056Z,12.55
2022-08-18T20:26:37.725Z,13.30
2022-08-18T20:29:17.284Z,12.82
2022-08-18T20:31:44.656Z,9.57
2022-08-18T20:34:14.711Z,12.85
2022-08-18T20:36:44.064Z,13.23
2022-08-18T20:39:35.135Z,7.82
2022-08-18T20:42:04.768Z,12.25
2022-08-18T20:44:38.351Z,11.02
2022-08-18T20:47:38.771Z,13.52
2022-08-18T20:50:09.333Z,10.93
2022-08-18T20:52:45.667Z,16.63
2022-08-18T20:55:30.781Z,13.27
2022-08-18T20:58:08.177Z,11.30
2022-08-18T21:00:41.535Z,10.98
2022-08-18T21:03:13.001Z,13.30
2022-08-18T21:05:43.757Z,11.30
2022-08-18T21:08:16.771Z,10.23
2022-08-18T21:10:57.933Z,13.07
2022-08-18T21:13:42.190Z,9.98
2022-08-18T21:16:11.529Z,8.35
2022-08-18T21:18:40.340Z,10.52
2022-08-18T21:21:19.083Z,12.40
2022-08-18T21:23:56.533Z,11.70
2022-08-18T21:26:24.048Z,9.20
2022-08-18T21:28:58.697Z,12.77
2022-08-18T21:31:44.971Z,11.10
2022-08-18T21:34:36.175Z,10.07
2022-08-18T21:37:08.047Z,10.95
2022-08-18T21:39:46.164Z,12.27
2022-08-18T21:42:19.204Z,13.73
2022-08-18T21:44:47.555Z,11.27
2022-08-18T21:47:14.443Z,13.32
2022-08-18T21:50:10.106Z,9.07
2022-08-18T21:52:52.164Z,14.48
2022-08-18T21:55:30.245Z,14.30
2022-08-18T21:58:16.893Z,12.40
2022-08-18T22:00:45.394Z,13.55
2022-08-18T22:03:24.925Z,11.68
2022-08-18T22:05:59.890Z,8.60
2022-08-18T22:08:49.826Z,15.45
2022-08-18T22:12:01.280Z,11.43
2022-08-18T22:14:54.275Z,10.10
2022-08-18T22:17:40.524Z,10.23
2022-08-18T22:20:35.223Z,11.95
2022-08-18T22:23:43.442Z,12.60
2022-08-18T22:26:28.322Z,10.10
2022-08-18T22:29:10.353Z,9.30
2022-08-18T22:31:43.589Z,11.82
2022-08-18T22:34:27.846Z,11.50
2022-08-18T22:37:23.375Z,10.60
2022-08-18T22:39:54.349Z,11.48
2022-08-18T22:42:24.518Z,9.50
2022-08-18T22:44:52.118Z,12.02
2022-08-18T22:47:19.789Z,13.05
2022-08-18T22:49:47.250Z,10.48
2022-08-18T22:52:33.151Z,9.68
2022-08-18T22:55:03.297Z,13.00
2022-08-18T22:57:38.502Z,11.80
2022-08-18T23:00:21.159Z,8.32
2022-08-18T23:02:49.937Z,11.30
2022-08-18T23:05:17.473Z,11.57
2022-08-18T23:07:46.087Z,10.85
2022-08-18T23:10:14.153Z,11.20
2022-08-18T23:12:43.204Z,12.23
2022-08-18T23:15:11.819Z,11.02
2022-08-18T23:17:40.719Z,10.10
2022-08-18T23:20:12.471Z,11.23
2022-08-18T23:22:45.771Z,10.32
2022-08-18T23:25:13.954Z,10.75
2022-08-18T23:27:43.071Z,10.10
2022-08-18T23:30:10.935Z,9.63
2022-08-18T23:32:37.934Z,10.15
2022-08-18T23:35:05.319Z,9.50
2022-08-18T23:37:32.392Z,12.45
2022-08-18T23:39:59.647Z,10.40
2022-08-18T23:42:26.690Z,15.35
2022-08-18T23:44:53.840Z,12.52
2022-08-18T23:47:21.168Z,9.68
2022-08-18T23:49:48.560Z,11.27
2022-08-18T23:52:15.704Z,12.75
2022-08-18T23:54:42.655Z,14.57
2022-08-18T23:57:09.593Z,13.18
2022-08-18T23:59:36.710Z,13.10
